sensor_id;sensor_type;location;lat;lon;timestamp;P1;durP1;ratioP1;P2;durP2;ratioP2
37955;SDS011;23776;51.592;7.180;2024-03-29T00:00:40;3.10;;;0.75;;
37955;SDS011;23776;51.592;7.180;2024-03-29T00:03:07;3.08;;;0.77;;
37955;SDS011;23776;51.592;7.180;2024-03-29T00:05:34;3.33;;;0.52;;
37955;SDS011;23776;51.592;7.180;2024-03-29T00:08:00;4.45;;;0.80;;
37955;SDS011;23776;51.592;7.180;2024-03-29T00:10:26;2.50;;;0.90;;
37955;SDS011;23776;51.592;7.180;2024-03-29T00:12:52;2.20;;;0.55;;
37955;SDS011;23776;51.592;7.180;2024-03-29T00:15:17;1.92;;;0.77;;
37955;SDS011;23776;51.592;7.180;2024-03-29T00:17:43;2.80;;;0.75;;
37955;SDS011;23776;51.592;7.180;2024-03-29T00:20:09;9.05;;;0.98;;
37955;SDS011;23776;51.592;7.180;2024-03-29T00:22:35;5.50;;;0.68;;
37955;SDS011;23776;51.592;7.180;2024-03-29T00:25:00;3.25;;;0.82;;
37955;SDS011;23776;51.592;7.180;2024-03-29T00:27:26;4.72;;;0.80;;
37955;SDS011;23776;51.592;7.180;2024-03-29T00:29:53;2.55;;;0.88;;
37955;SDS011;23776;51.592;7.180;2024-03-29T00:32:19;2.28;;;0.55;;
37955;SDS011;23776;51.592;7.180;2024-03-29T00:34:46;1.92;;;0.55;;
37955;SDS011;23776;51.592;7.180;2024-03-29T00:37:13;1.92;;;0.50;;
37955;SDS011;23776;51.592;7.180;2024-03-29T00:39:39;1.45;;;0.45;;
37955;SDS011;23776;51.592;7.180;2024-03-29T00:42:04;6.65;;;1.15;;
37955;SDS011;23776;51.592;7.180;2024-03-29T00:44:33;3.58;;;0.73;;
37955;SDS011;23776;51.592;7.180;2024-03-29T00:47:00;2.85;;;0.75;;
37955;SDS011;23776;51.592;7.180;2024-03-29T00:49:26;2.30;;;0.80;;
37955;SDS011;23776;51.592;7.180;2024-03-29T00:51:51;6.75;;;0.70;;
37955;SDS011;23776;51.592;7.180;2024-03-29T00:54:17;3.67;;;1.13;;
37955;SDS011;23776;51.592;7.180;2024-03-29T00:56:44;4.07;;;0.70;;
37955;SDS011;23776;51.592;7.180;2024-03-29T00:59:09;4.53;;;0.55;;
37955;SDS011;23776;51.592;7.180;2024-03-29T01:01:35;4.70;;;0.70;;
37955;SDS011;23776;51.592;7.180;2024-03-29T01:04:00;1.92;;;0.65;;
37955;SDS011;23776;51.592;7.180;2024-03-29T01:06:26;7.45;;;0.88;;
37955;SDS011;23776;51.592;7.180;2024-03-29T01:08:52;4.82;;;0.82;;
37955;SDS011;23776;51.592;7.180;2024-03-29T01:11:17;4.72;;;0.45;;
37955;SDS011;23776;51.592;7.180;2024-03-29T01:13:43;4.75;;;0.80;;
37955;SDS011;23776;51.592;7.180;2024-03-29T01:16:08;3.58;;;0.75;;
37955;SDS011;23776;51.592;7.180;2024-03-29T01:18:34;3.00;;;0.55;;
37955;SDS011;23776;51.592;7.180;2024-03-29T01:21:00;3.83;;;1.25;;
37955;SDS011;23776;51.592;7.180;2024-03-29T01:23:25;2.53;;;0.73;;
37955;SDS011;23776;51.592;7.180;2024-03-29T01:25:51;4.68;;;0.70;;
37955;SDS011;23776;51.592;7.180;2024-03-29T01:28:16;1.13;;;0.55;;
37955;SDS011;23776;51.592;7.180;2024-03-29T01:30:42;7.60;;;1.05;;
37955;SDS011;23776;51.592;7.180;2024-03-29T01:33:07;2.88;;;0.57;;
37955;SDS011;23776;51.592;7.180;2024-03-29T01:35:33;1.67;;;0.50;;
37955;SDS011;23776;51.592;7.180;2024-03-29T01:37:58;1.63;;;0.70;;
37955;SDS011;23776;51.592;7.180;2024-03-29T01:40:24;1.08;;;0.50;;
37955;SDS011;23776;51.592;7.180;2024-03-29T01:42:53;3.58;;;0.60;;
37955;SDS011;23776;51.592;7.180;2024-03-29T01:45:19;3.13;;;0.63;;
37955;SDS011;23776;51.592;7.180;2024-03-29T01:47:45;2.10;;;0.60;;
37955;SDS011;23776;51.592;7.180;2024-03-29T01:50:11;1.08;;;0.50;;
37955;SDS011;23776;51.592;7.180;2024-03-29T01:52:37;2.50;;;0.70;;
37955;SDS011;23776;51.592;7.180;2024-03-29T01:55:03;1.92;;;0.80;;
37955;SDS011;23776;51.592;7.180;2024-03-29T01:57:29;1.75;;;0.52;;
37955;SDS011;23776;51.592;7.180;2024-03-29T01:59:55;0.95;;;0.40;;
37955;SDS011;23776;51.592;7.180;2024-03-29T02:02:22;1.42;;;0.52;;
37955;SDS011;23776;51.592;7.180;2024-03-29T02:04:48;2.45;;;0.60;;
37955;SDS011;23776;51.592;7.180;2024-03-29T02:07:14;2.92;;;0.75;;
37955;SDS011;23776;51.592;7.180;2024-03-29T02:09:40;1.10;;;0.63;;
37955;SDS011;23776;51.592;7.180;2024-03-29T02:12:06;1.45;;;0.60;;
37955;SDS011;23776;51.592;7.180;2024-03-29T02:14:31;2.78;;;0.50;;
37955;SDS011;23776;51.592;7.180;2024-03-29T02:16:57;3.35;;;0.70;;
37955;SDS011;23776;51.592;7.180;2024-03-29T02:19:23;3.05;;;0.70;;
37955;SDS011;23776;51.592;7.180;2024-03-29T02:21:48;8.38;;;0.70;;
37955;SDS011;23776;51.592;7.180;2024-03-29T02:24:19;2.00;;;0.55;;
37955;SDS011;23776;51.592;7.180;2024-03-29T02:26:45;2.33;;;0.63;;
37955;SDS011;23776;51.592;7.180;2024-03-29T02:29:11;3.15;;;0.57;;
37955;SDS011;23776;51.592;7.180;2024-03-29T02:31:37;2.67;;;0.50;;
37955;SDS011;23776;51.592;7.180;2024-03-29T02:34:03;4.07;;;0.57;;
37955;SDS011;23776;51.592;7.180;2024-03-29T02:36:28;5.05;;;0.93;;
37955;SDS011;23776;51.592;7.180;2024-03-29T02:38:54;0.60;;;0.35;;
37955;SDS011;23776;51.592;7.180;2024-03-29T02:41:20;2.88;;;0.52;;
37955;SDS011;23776;51.592;7.180;2024-03-29T02:43:46;2.55;;;0.50;;
37955;SDS011;23776;51.592;7.180;2024-03-29T02:46:11;2.28;;;0.60;;
37955;SDS011;23776;51.592;7.180;2024-03-29T02:48:37;3.63;;;0.70;;
37955;SDS011;23776;51.592;7.180;2024-03-29T02:51:02;1.75;;;0.73;;
37955;SDS011;23776;51.592;7.180;2024-03-29T02:53:28;3.47;;;0.50;;
37955;SDS011;23776;51.592;7.180;2024-03-29T02:55:54;3.60;;;0.60;;
37955;SDS011;23776;51.592;7.180;2024-03-29T02:58:20;2.63;;;0.70;;
37955;SDS011;23776;51.592;7.180;2024-03-29T03:00:45;0.98;;;0.40;;
37955;SDS011;23776;51.592;7.180;2024-03-29T03:03:13;8.02;;;0.70;;
37955;SDS011;23776;51.592;7.180;2024-03-29T03:05:40;3.00;;;0.60;;
37955;SDS011;23776;51.592;7.180;2024-03-29T03:08:06;6.47;;;1.00;;
37955;SDS011;23776;51.592;7.180;2024-03-29T03:10:50;4.40;;;0.80;;
37955;SDS011;23776;51.592;7.180;2024-03-29T03:15:53;3.75;;;0.40;;
37955;SDS011;23776;51.592;7.180;2024-03-29T03:18:19;4.97;;;0.63;;
37955;SDS011;23776;51.592;7.180;2024-03-29T03:20:51;3.00;;;0.52;;
37955;SDS011;23776;51.592;7.180;2024-03-29T03:23:20;3.63;;;0.63;;
37955;SDS011;23776;51.592;7.180;2024-03-29T03:25:56;1.42;;;0.45;;
37955;SDS011;23776;51.592;7.180;2024-03-29T03:28:23;4.90;;;0.50;;
37955;SDS011;23776;51.592;7.180;2024-03-29T03:30:49;10.20;;;0.52;;
37955;SDS011;23776;51.592;7.180;2024-03-29T03:33:15;5.07;;;0.50;;
37955;SDS011;23776;51.592;7.180;2024-03-29T03:35:41;2.03;;;0.80;;
37955;SDS011;23776;51.592;7.180;2024-03-29T03:38:07;1.27;;;0.30;;
37955;SDS011;23776;51.592;7.180;2024-03-29T03:40:33;1.75;;;0.50;;
37955;SDS011;23776;51.592;7.180;2024-03-29T03:43:02;4.30;;;0.70;;
37955;SDS011;23776;51.592;7.180;2024-03-29T03:45:33;2.97;;;0.43;;
37955;SDS011;23776;51.592;7.180;2024-03-29T03:47:59;2.38;;;0.63;;
37955;SDS011;23776;51.592;7.180;2024-03-29T03:50:25;1.77;;;0.47;;
37955;SDS011;23776;51.592;7.180;2024-03-29T03:52:50;3.03;;;0.50;;
37955;SDS011;23776;51.592;7.180;2024-03-29T03:55:16;1.02;;;0.40;;
37955;SDS011;23776;51.592;7.180;2024-03-29T03:57:41;1.38;;;0.40;;
37955;SDS011;23776;51.592;7.180;2024-03-29T04:00:07;1.52;;;0.40;;
37955;SDS011;23776;51.592;7.180;2024-03-29T04:02:34;2.55;;;0.60;;
37955;SDS011;23776;51.592;7.180;2024-03-29T04:04:59;0.82;;;0.38;;
37955;SDS011;23776;51.592;7.180;2024-03-29T04:07:25;2.45;;;0.47;;
37955;SDS011;23776;51.592;7.180;2024-03-29T04:09:51;0.77;;;0.50;;
37955;SDS011;23776;51.592;7.180;2024-03-29T04:12:16;2.10;;;0.50;;
37955;SDS011;23776;51.592;7.180;2024-03-29T04:14:42;0.85;;;0.30;;
37955;SDS011;23776;51.592;7.180;2024-03-29T04:17:08;4.63;;;0.50;;
37955;SDS011;23776;51.592;7.180;2024-03-29T04:19:33;1.13;;;0.40;;
37955;SDS011;23776;51.592;7.180;2024-03-29T04:21:59;1.33;;;0.32;;
37955;SDS011;23776;51.592;7.180;2024-03-29T04:24:24;3.03;;;0.43;;
37955;SDS011;23776;51.592;7.180;2024-03-29T04:26:50;3.28;;;0.43;;
37955;SDS011;23776;51.592;7.180;2024-03-29T04:29:16;2.80;;;0.77;;
37955;SDS011;23776;51.592;7.180;2024-03-29T04:31:41;2.78;;;0.57;;
37955;SDS011;23776;51.592;7.180;2024-03-29T04:34:09;1.73;;;0.50;;
37955;SDS011;23776;51.592;7.180;2024-03-29T04:36:34;1.20;;;0.50;;
37955;SDS011;23776;51.592;7.180;2024-03-29T04:39:00;2.25;;;0.95;;
37955;SDS011;23776;51.592;7.180;2024-03-29T04:41:26;1.95;;;0.50;;
37955;SDS011;23776;51.592;7.180;2024-03-29T04:43:51;4.85;;;0.82;;
37955;SDS011;23776;51.592;7.180;2024-03-29T04:46:17;2.50;;;0.75;;
37955;SDS011;23776;51.592;7.180;2024-03-29T04:48:42;2.55;;;0.40;;
37955;SDS011;23776;51.592;7.180;2024-03-29T04:51:10;4.88;;;0.90;;
37955;SDS011;23776;51.592;7.180;2024-03-29T04:53:37;1.52;;;0.70;;
37955;SDS011;23776;51.592;7.180;2024-03-29T04:56:06;6.22;;;1.00;;
37955;SDS011;23776;51.592;7.180;2024-03-29T04:58:32;3.33;;;0.40;;
37955;SDS011;23776;51.592;7.180;2024-03-29T05:00:57;4.70;;;0.75;;
37955;SDS011;23776;51.592;7.180;2024-03-29T05:03:23;0.82;;;0.50;;
37955;SDS011;23776;51.592;7.180;2024-03-29T05:05:50;2.92;;;0.90;;
37955;SDS011;23776;51.592;7.180;2024-03-29T05:08:16;2.38;;;0.70;;
37955;SDS011;23776;51.592;7.180;2024-03-29T05:10:46;8.07;;;0.88;;
37955;SDS011;23776;51.592;7.180;2024-03-29T05:13:12;6.40;;;0.80;;
37955;SDS011;23776;51.592;7.180;2024-03-29T05:15:38;4.88;;;0.90;;
37955;SDS011;23776;51.592;7.180;2024-03-29T05:18:03;3.05;;;0.80;;
37955;SDS011;23776;51.592;7.180;2024-03-29T05:20:29;2.30;;;0.93;;
37955;SDS011;23776;51.592;7.180;2024-03-29T05:22:55;6.05;;;0.57;;
37955;SDS011;23776;51.592;7.180;2024-03-29T05:25:21;5.85;;;1.02;;
37955;SDS011;23776;51.592;7.180;2024-03-29T05:27:48;3.72;;;0.80;;
37955;SDS011;23776;51.592;7.180;2024-03-29T05:30:14;4.53;;;1.05;;
37955;SDS011;23776;51.592;7.180;2024-03-29T05:32:39;7.70;;;1.08;;
37955;SDS011;23776;51.592;7.180;2024-03-29T05:35:05;2.92;;;1.10;;
37955;SDS011;23776;51.592;7.180;2024-03-29T05:37:31;3.17;;;0.82;;
37955;SDS011;23776;51.592;7.180;2024-03-29T05:39:56;2.90;;;0.95;;
37955;SDS011;23776;51.592;7.180;2024-03-29T05:42:28;5.90;;;1.00;;
37955;SDS011;23776;51.592;7.180;2024-03-29T05:44:56;3.38;;;0.70;;
37955;SDS011;23776;51.592;7.180;2024-03-29T05:47:21;2.28;;;0.98;;
37955;SDS011;23776;51.592;7.180;2024-03-29T05:49:48;4.53;;;1.00;;
37955;SDS011;23776;51.592;7.180;2024-03-29T05:52:14;5.72;;;0.80;;
37955;SDS011;23776;51.592;7.180;2024-03-29T05:54:40;3.95;;;1.00;;
37955;SDS011;23776;51.592;7.180;2024-03-29T05:57:07;2.50;;;0.60;;
37955;SDS011;23776;51.592;7.180;2024-03-29T05:59:33;6.68;;;1.55;;
37955;SDS011;23776;51.592;7.180;2024-03-29T06:01:59;2.38;;;0.90;;
37955;SDS011;23776;51.592;7.180;2024-03-29T06:04:25;3.42;;;1.05;;
37955;SDS011;23776;51.592;7.180;2024-03-29T06:07:02;2.53;;;0.73;;
37955;SDS011;23776;51.592;7.180;2024-03-29T06:09:29;3.33;;;0.88;;
37955;SDS011;23776;51.592;7.180;2024-03-29T06:11:55;2.33;;;0.93;;
37955;SDS011;23776;51.592;7.180;2024-03-29T06:14:22;1.88;;;0.73;;
37955;SDS011;23776;51.592;7.180;2024-03-29T06:17:07;2.13;;;0.98;;
37955;SDS011;23776;51.592;7.180;2024-03-29T06:19:50;2.38;;;1.00;;
37955;SDS011;23776;51.592;7.180;2024-03-29T06:22:25;2.85;;;1.00;;
37955;SDS011;23776;51.592;7.180;2024-03-29T06:24:55;5.35;;;1.20;;
37955;SDS011;23776;51.592;7.180;2024-03-29T06:27:24;9.68;;;1.27;;
37955;SDS011;23776;51.592;7.180;2024-03-29T06:29:50;3.53;;;0.98;;
37955;SDS011;23776;51.592;7.180;2024-03-29T06:32:16;4.40;;;1.00;;
37955;SDS011;23776;51.592;7.180;2024-03-29T06:34:43;4.15;;;1.05;;
37955;SDS011;23776;51.592;7.180;2024-03-29T06:37:12;4.70;;;1.20;;
37955;SDS011;23776;51.592;7.180;2024-03-29T06:39:38;3.20;;;1.13;;
37955;SDS011;23776;51.592;7.180;2024-03-29T06:42:03;7.82;;;1.52;;
37955;SDS011;23776;51.592;7.180;2024-03-29T06:44:32;5.80;;;1.10;;
37955;SDS011;23776;51.592;7.180;2024-03-29T06:46:58;3.50;;;0.98;;
37955;SDS011;23776;51.592;7.180;2024-03-29T06:49:24;4.97;;;1.35;;
37955;SDS011;23776;51.592;7.180;2024-03-29T06:51:49;4.40;;;1.30;;
37955;SDS011;23776;51.592;7.180;2024-03-29T06:54:15;3.72;;;1.02;;
37955;SDS011;23776;51.592;7.180;2024-03-29T06:56:41;5.20;;;1.23;;
37955;SDS011;23776;51.592;7.180;2024-03-29T06:59:06;4.82;;;1.20;;
37955;SDS011;23776;51.592;7.180;2024-03-29T07:01:33;5.75;;;1.30;;
37955;SDS011;23776;51.592;7.180;2024-03-29T07:03:58;6.05;;;1.30;;
37955;SDS011;23776;51.592;7.180;2024-03-29T07:06:24;7.78;;;1.35;;
37955;SDS011;23776;51.592;7.180;2024-03-29T07:08:49;3.42;;;1.25;;
37955;SDS011;23776;51.592;7.180;2024-03-29T07:11:15;3.53;;;1.20;;
37955;SDS011;23776;51.592;7.180;2024-03-29T07:13:41;2.70;;;0.90;;
37955;SDS011;23776;51.592;7.180;2024-03-29T07:16:06;5.13;;;1.45;;
37955;SDS011;23776;51.592;7.180;2024-03-29T07:18:32;3.15;;;1.25;;
37955;SDS011;23776;51.592;7.180;2024-03-29T07:20:58;5.30;;;1.30;;
37955;SDS011;23776;51.592;7.180;2024-03-29T07:23:24;2.95;;;1.13;;
37955;SDS011;23776;51.592;7.180;2024-03-29T07:26:02;3.15;;;1.25;;
37955;SDS011;23776;51.592;7.180;2024-03-29T07:28:29;5.50;;;1.20;;
37955;SDS011;23776;51.592;7.180;2024-03-29T07:30:55;3.05;;;1.00;;
37955;SDS011;23776;51.592;7.180;2024-03-29T07:33:21;1.60;;;0.82;;
37955;SDS011;23776;51.592;7.180;2024-03-29T07:35:54;9.80;;;1.53;;
37955;SDS011;23776;51.592;7.180;2024-03-29T07:38:20;6.70;;;1.50;;
37955;SDS011;23776;51.592;7.180;2024-03-29T07:40:47;3.55;;;1.48;;
37955;SDS011;23776;51.592;7.180;2024-03-29T07:43:13;8.02;;;1.60;;
37955;SDS011;23776;51.592;7.180;2024-03-29T07:45:40;3.13;;;1.48;;
37955;SDS011;23776;51.592;7.180;2024-03-29T07:48:07;5.93;;;2.28;;
37955;SDS011;23776;51.592;7.180;2024-03-29T07:50:34;6.10;;;1.83;;
37955;SDS011;23776;51.592;7.180;2024-03-29T07:53:01;3.20;;;1.33;;
37955;SDS011;23776;51.592;7.180;2024-03-29T07:55:27;5.70;;;2.10;;
37955;SDS011;23776;51.592;7.180;2024-03-29T07:57:52;6.40;;;1.75;;
37955;SDS011;23776;51.592;7.180;2024-03-29T08:00:18;7.15;;;1.67;;
37955;SDS011;23776;51.592;7.180;2024-03-29T08:02:44;2.85;;;1.40;;
37955;SDS011;23776;51.592;7.180;2024-03-29T08:05:09;4.95;;;1.63;;
37955;SDS011;23776;51.592;7.180;2024-03-29T08:07:35;2.67;;;1.13;;
37955;SDS011;23776;51.592;7.180;2024-03-29T08:10:00;3.00;;;1.00;;
37955;SDS011;23776;51.592;7.180;2024-03-29T08:12:26;2.47;;;0.90;;
37955;SDS011;23776;51.592;7.180;2024-03-29T08:14:51;2.55;;;1.10;;
37955;SDS011;23776;51.592;7.180;2024-03-29T08:17:17;8.05;;;1.20;;
37955;SDS011;23776;51.592;7.180;2024-03-29T08:19:42;3.13;;;0.93;;
37955;SDS011;23776;51.592;7.180;2024-03-29T08:22:08;2.50;;;0.70;;
37955;SDS011;23776;51.592;7.180;2024-03-29T08:24:37;2.88;;;0.70;;
37955;SDS011;23776;51.592;7.180;2024-03-29T08:27:02;1.77;;;0.80;;
37955;SDS011;23776;51.592;7.180;2024-03-29T08:29:28;2.75;;;1.20;;
37955;SDS011;23776;51.592;7.180;2024-03-29T08:31:54;3.58;;;1.08;;
37955;SDS011;23776;51.592;7.180;2024-03-29T08:34:20;2.55;;;1.17;;
37955;SDS011;23776;51.592;7.180;2024-03-29T08:36:45;3.97;;;1.85;;
37955;SDS011;23776;51.592;7.180;2024-03-29T08:39:12;2.58;;;1.40;;
37955;SDS011;23776;51.592;7.180;2024-03-29T08:41:37;2.00;;;0.82;;
37955;SDS011;23776;51.592;7.180;2024-03-29T08:44:03;2.10;;;0.60;;
37955;SDS011;23776;51.592;7.180;2024-03-29T08:46:30;1.88;;;1.05;;
37955;SDS011;23776;51.592;7.180;2024-03-29T08:48:55;4.65;;;0.98;;
37955;SDS011;23776;51.592;7.180;2024-03-29T08:51:21;5.28;;;1.60;;
37955;SDS011;23776;51.592;7.180;2024-03-29T08:53:47;2.47;;;1.00;;
37955;SDS011;23776;51.592;7.180;2024-03-29T08:56:13;2.72;;;1.55;;
37955;SDS011;23776;51.592;7.180;2024-03-29T08:58:40;2.58;;;1.27;;
37955;SDS011;23776;51.592;7.180;2024-03-29T09:01:06;2.08;;;1.23;;
37955;SDS011;23776;51.592;7.180;2024-03-29T09:03:31;2.15;;;1.10;;
37955;SDS011;23776;51.592;7.180;2024-03-29T09:05:57;2.25;;;1.38;;
37955;SDS011;23776;51.592;7.180;2024-03-29T09:08:23;3.78;;;1.20;;
37955;SDS011;23776;51.592;7.180;2024-03-29T09:10:48;4.55;;;1.48;;
37955;SDS011;23776;51.592;7.180;2024-03-29T09:13:14;6.38;;;1.13;;
37955;SDS011;23776;51.592;7.180;2024-03-29T09:15:40;5.30;;;1.23;;
37955;SDS011;23776;51.592;7.180;2024-03-29T09:18:05;9.52;;;1.40;;
37955;SDS011;23776;51.592;7.180;2024-03-29T09:20:57;2.40;;;1.38;;
37955;SDS011;23776;51.592;7.180;2024-03-29T09:23:25;2.45;;;1.33;;
37955;SDS011;23776;51.592;7.180;2024-03-29T09:25:53;3.03;;;1.30;;
37955;SDS011;23776;51.592;7.180;2024-03-29T09:28:18;2.58;;;1.27;;
37955;SDS011;23776;51.592;7.180;2024-03-29T09:30:45;4.57;;;1.23;;
37955;SDS011;23776;51.592;7.180;2024-03-29T09:33:12;8.43;;;1.60;;
37955;SDS011;23776;51.592;7.180;2024-03-29T09:35:37;3.05;;;1.50;;
37955;SDS011;23776;51.592;7.180;2024-03-29T09:38:03;6.78;;;1.80;;
37955;SDS011;23776;51.592;7.180;2024-03-29T09:40:29;4.38;;;1.80;;
37955;SDS011;23776;51.592;7.180;2024-03-29T09:42:55;4.15;;;1.40;;
37955;SDS011;23776;51.592;7.180;2024-03-29T09:45:28;5.25;;;1.20;;
37955;SDS011;23776;51.592;7.180;2024-03-29T09:48:03;2.95;;;1.33;;
37955;SDS011;23776;51.592;7.180;2024-03-29T09:50:30;5.47;;;1.42;;
37955;SDS011;23776;51.592;7.180;2024-03-29T09:52:57;5.60;;;1.67;;
37955;SDS011;23776;51.592;7.180;2024-03-29T09:55:23;3.75;;;1.70;;
37955;SDS011;23776;51.592;7.180;2024-03-29T09:57:49;2.22;;;1.45;;
37955;SDS011;23776;51.592;7.180;2024-03-29T10:00:16;5.90;;;1.55;;
37955;SDS011;23776;51.592;7.180;2024-03-29T10:02:43;3.33;;;1.48;;
37955;SDS011;23776;51.592;7.180;2024-03-29T10:05:09;3.80;;;1.17;;
37955;SDS011;23776;51.592;7.180;2024-03-29T10:07:37;1.92;;;1.17;;
37955;SDS011;23776;51.592;7.180;2024-03-29T10:10:05;5.30;;;1.45;;
37955;SDS011;23776;51.592;7.180;2024-03-29T10:12:31;1.83;;;1.00;;
37955;SDS011;23776;51.592;7.180;2024-03-29T10:14:57;5.60;;;1.35;;
37955;SDS011;23776;51.592;7.180;2024-03-29T10:17:39;1.92;;;1.02;;
37955;SDS011;23776;51.592;7.180;2024-03-29T10:20:11;2.53;;;1.13;;
37955;SDS011;23776;51.592;7.180;2024-03-29T10:22:41;3.00;;;1.40;;
37955;SDS011;23776;51.592;7.180;2024-03-29T10:25:08;3.88;;;1.00;;
37955;SDS011;23776;51.592;7.180;2024-03-29T10:27:33;3.60;;;1.10;;
37955;SDS011;23776;51.592;7.180;2024-03-29T10:29:59;3.03;;;1.20;;
37955;SDS011;23776;51.592;7.180;2024-03-29T10:32:25;2.88;;;1.10;;
37955;SDS011;23776;51.592;7.180;2024-03-29T10:34:50;2.15;;;1.08;;
37955;SDS011;23776;51.592;7.180;2024-03-29T10:37:16;3.08;;;1.20;;
37955;SDS011;23776;51.592;7.180;2024-03-29T10:39:49;4.15;;;1.90;;
37955;SDS011;23776;51.592;7.180;2024-03-29T10:42:15;5.90;;;2.03;;
37955;SDS011;23776;51.592;7.180;2024-03-29T10:44:42;3.17;;;2.03;;
37955;SDS011;23776;51.592;7.180;2024-03-29T10:47:08;4.80;;;2.40;;
37955;SDS011;23776;51.592;7.180;2024-03-29T10:49:35;4.72;;;1.63;;
37955;SDS011;23776;51.592;7.180;2024-03-29T10:52:02;4.07;;;2.03;;
37955;SDS011;23776;51.592;7.180;2024-03-29T10:54:29;2.80;;;1.27;;
37955;SDS011;23776;51.592;7.180;2024-03-29T10:56:59;2.47;;;1.30;;
37955;SDS011;23776;51.592;7.180;2024-03-29T10:59:39;5.97;;;1.65;;
37955;SDS011;23776;51.592;7.180;2024-03-29T11:02:22;2.17;;;1.40;;
37955;SDS011;23776;51.592;7.180;2024-03-29T11:05:01;1.35;;;0.88;;
37955;SDS011;23776;51.592;7.180;2024-03-29T11:07:31;1.73;;;0.90;;
37955;SDS011;23776;51.592;7.180;2024-03-29T11:09:59;1.45;;;0.90;;
37955;SDS011;23776;51.592;7.180;2024-03-29T11:12:27;1.73;;;0.88;;
37955;SDS011;23776;51.592;7.180;2024-03-29T11:15:02;2.53;;;1.00;;
37955;SDS011;23776;51.592;7.180;2024-03-29T11:17:30;2.05;;;0.95;;
37955;SDS011;23776;51.592;7.180;2024-03-29T11:19:56;1.60;;;1.10;;
37955;SDS011;23776;51.592;7.180;2024-03-29T11:22:24;4.15;;;0.98;;
37955;SDS011;23776;51.592;7.180;2024-03-29T11:24:50;1.50;;;0.90;;
37955;SDS011;23776;51.592;7.180;2024-03-29T11:27:16;2.85;;;0.85;;
37955;SDS011;23776;51.592;7.180;2024-03-29T11:29:44;1.00;;;0.65;;
37955;SDS011;23776;51.592;7.180;2024-03-29T11:32:11;1.42;;;0.70;;
37955;SDS011;23776;51.592;7.180;2024-03-29T11:34:42;6.25;;;1.00;;
37955;SDS011;23776;51.592;7.180;2024-03-29T11:37:12;1.88;;;0.98;;
37955;SDS011;23776;51.592;7.180;2024-03-29T11:39:38;1.20;;;0.73;;
37955;SDS011;23776;51.592;7.180;2024-03-29T11:42:05;1.77;;;0.80;;
37955;SDS011;23776;51.592;7.180;2024-03-29T11:44:31;0.70;;;0.50;;
37955;SDS011;23776;51.592;7.180;2024-03-29T11:46:57;3.15;;;0.77;;
37955;SDS011;23776;51.592;7.180;2024-03-29T11:49:24;1.73;;;0.70;;
37955;SDS011;23776;51.592;7.180;2024-03-29T11:51:49;3.72;;;0.50;;
37955;SDS011;23776;51.592;7.180;2024-03-29T11:54:15;2.80;;;0.50;;
37955;SDS011;23776;51.592;7.180;2024-03-29T11:56:42;1.70;;;0.60;;
37955;SDS011;23776;51.592;7.180;2024-03-29T11:59:07;2.22;;;0.60;;
37955;SDS011;23776;51.592;7.180;2024-03-29T12:01:34;1.63;;;0.43;;
37955;SDS011;23776;51.592;7.180;2024-03-29T12:04:04;1.42;;;0.70;;
37955;SDS011;23776;51.592;7.180;2024-03-29T12:06:30;1.65;;;0.65;;
37955;SDS011;23776;51.592;7.180;2024-03-29T12:08:56;0.93;;;0.60;;
37955;SDS011;23776;51.592;7.180;2024-03-29T12:11:22;2.38;;;0.90;;
37955;SDS011;23776;51.592;7.180;2024-03-29T12:13:48;2.45;;;0.70;;
37955;SDS011;23776;51.592;7.180;2024-03-29T12:16:14;2.40;;;0.93;;
37955;SDS011;23776;51.592;7.180;2024-03-29T12:18:40;2.25;;;0.80;;
37955;SDS011;23776;51.592;7.180;2024-03-29T12:21:05;4.47;;;1.38;;
37955;SDS011;23776;51.592;7.180;2024-03-29T12:23:31;3.15;;;1.00;;
37955;SDS011;23776;51.592;7.180;2024-03-29T12:25:57;8.52;;;1.70;;
37955;SDS011;23776;51.592;7.180;2024-03-29T12:28:24;7.18;;;1.48;;
37955;SDS011;23776;51.592;7.180;2024-03-29T12:30:50;2.17;;;1.10;;
37955;SDS011;23776;51.592;7.180;2024-03-29T12:33:18;5.20;;;1.45;;
37955;SDS011;23776;51.592;7.180;2024-03-29T12:35:49;4.80;;;0.98;;
37955;SDS011;23776;51.592;7.180;2024-03-29T12:38:17;1.25;;;0.82;;
37955;SDS011;23776;51.592;7.180;2024-03-29T12:40:47;1.90;;;0.88;;
37955;SDS011;23776;51.592;7.180;2024-03-29T12:43:15;3.78;;;1.60;;
37955;SDS011;23776;51.592;7.180;2024-03-29T12:45:44;4.57;;;1.63;;
37955;SDS011;23776;51.592;7.180;2024-03-29T12:48:11;5.22;;;1.67;;
37955;SDS011;23776;51.592;7.180;2024-03-29T12:50:42;2.90;;;1.10;;
37955;SDS011;23776;51.592;7.180;2024-03-29T12:53:09;4.18;;;1.27;;
37955;SDS011;23776;51.592;7.180;2024-03-29T12:55:36;6.68;;;2.17;;
37955;SDS011;23776;51.592;7.180;2024-03-29T12:58:05;9.48;;;4.10;;
37955;SDS011;23776;51.592;7.180;2024-03-29T13:00:34;9.05;;;4.28;;
37955;SDS011;23776;51.592;7.180;2024-03-29T13:03:00;5.10;;;1.63;;
37955;SDS011;23776;51.592;7.180;2024-03-29T13:05:26;3.17;;;1.00;;
37955;SDS011;23776;51.592;7.180;2024-03-29T13:07:53;5.40;;;1.50;;
37955;SDS011;23776;51.592;7.180;2024-03-29T13:10:18;5.68;;;2.35;;
37955;SDS011;23776;51.592;7.180;2024-03-29T13:12:46;1.42;;;0.70;;
37955;SDS011;23776;51.592;7.180;2024-03-29T13:15:24;3.78;;;0.85;;
37955;SDS011;23776;51.592;7.180;2024-03-29T13:17:52;2.03;;;0.95;;
37955;SDS011;23776;51.592;7.180;2024-03-29T13:20:18;1.98;;;0.98;;
37955;SDS011;23776;51.592;7.180;2024-03-29T13:22:45;4.03;;;1.05;;
37955;SDS011;23776;51.592;7.180;2024-03-29T13:25:13;3.28;;;0.80;;
37955;SDS011;23776;51.592;7.180;2024-03-29T13:27:39;3.70;;;0.50;;
37955;SDS011;23776;51.592;7.180;2024-03-29T13:30:06;1.73;;;0.50;;
37955;SDS011;23776;51.592;7.180;2024-03-29T13:32:34;0.77;;;0.60;;
37955;SDS011;23776;51.592;7.180;2024-03-29T13:35:00;4.05;;;0.95;;
37955;SDS011;23776;51.592;7.180;2024-03-29T13:37:26;1.63;;;0.35;;
37955;SDS011;23776;51.592;7.180;2024-03-29T13:39:53;3.55;;;0.50;;
37955;SDS011;23776;51.592;7.180;2024-03-29T13:42:20;1.95;;;0.70;;
37955;SDS011;23776;51.592;7.180;2024-03-29T13:44:46;1.80;;;0.63;;
37955;SDS011;23776;51.592;7.180;2024-03-29T13:47:14;3.92;;;0.80;;
37955;SDS011;23776;51.592;7.180;2024-03-29T13:49:41;1.30;;;0.55;;
37955;SDS011;23776;51.592;7.180;2024-03-29T13:52:07;0.95;;;0.60;;
37955;SDS011;23776;51.592;7.180;2024-03-29T13:54:33;2.22;;;0.35;;
37955;SDS011;23776;51.592;7.180;2024-03-29T13:56:59;1.90;;;0.50;;
37955;SDS011;23776;51.592;7.180;2024-03-29T13:59:25;5.28;;;0.77;;
37955;SDS011;23776;51.592;7.180;2024-03-29T14:01:52;2.42;;;1.13;;
37955;SDS011;23776;51.592;7.180;2024-03-29T14:04:18;3.90;;;1.02;;
37955;SDS011;23776;51.592;7.180;2024-03-29T14:06:43;1.00;;;0.50;;
37955;SDS011;23776;51.592;7.180;2024-03-29T14:09:09;2.75;;;1.00;;
37955;SDS011;23776;51.592;7.180;2024-03-29T14:11:34;1.20;;;0.45;;
37955;SDS011;23776;51.592;7.180;2024-03-29T14:14:00;2.03;;;0.40;;
37955;SDS011;23776;51.592;7.180;2024-03-29T14:16:25;1.02;;;0.50;;
37955;SDS011;23776;51.592;7.180;2024-03-29T14:18:51;0.88;;;0.40;;
37955;SDS011;23776;51.592;7.180;2024-03-29T14:21:16;0.90;;;0.32;;
37955;SDS011;23776;51.592;7.180;2024-03-29T14:23:42;1.13;;;0.40;;
37955;SDS011;23776;51.592;7.180;2024-03-29T14:26:08;3.08;;;0.32;;
37955;SDS011;23776;51.592;7.180;2024-03-29T14:28:33;1.25;;;0.32;;
37955;SDS011;23776;51.592;7.180;2024-03-29T14:30:59;3.53;;;0.30;;
37955;SDS011;23776;51.592;7.180;2024-03-29T14:33:24;0.60;;;0.30;;
37955;SDS011;23776;51.592;7.180;2024-03-29T14:35:50;0.85;;;0.40;;
37955;SDS011;23776;51.592;7.180;2024-03-29T14:38:15;1.50;;;0.45;;
37955;SDS011;23776;51.592;7.180;2024-03-29T14:40:41;3.83;;;1.00;;
37955;SDS011;23776;51.592;7.180;2024-03-29T14:43:07;3.60;;;0.32;;
37955;SDS011;23776;51.592;7.180;2024-03-29T14:45:33;0.80;;;0.32;;
37955;SDS011;23776;51.592;7.180;2024-03-29T14:47:58;6.40;;;1.27;;